Time;durP1;ratioP1;P1;durP2;ratioP2;P2;SDS_P1;SDS_P2;PMS_P1;PMS_P2;Temp;Humidity;BMP_temperature;BMP_pressure;BME280_temperature;BME280_humidity;BME280_pressure;Samples;Min_cycle;Max_cycle;Signal;HPM_P1;HPM_P2
2022/03/20 00:01:04;;;;;;;177.38;71.37;;;;;;;-2.60;57.02;102124.51;1674549;85;21271;-69
2022/03/20 00:03:32;;;;;;;186.32;68.85;;;;;;;-2.60;57.19;102122.66;1674582;85;21128;-69
2022/03/20 00:06:01;;;;;;;176.45;75.22;;;;;;;-2.62;57.26;102122.48;1676691;83;20950;-71
2022/03/20 00:08:32;;;;;;;186.80;72.35;;;;;;;-2.61;57.19;102114.20;1674206;85;20974;-72
2022/03/20 00:11:02;;;;;;;199.45;75.50;;;;;;;-2.61;57.01;102114.73;1674753;85;21074;-73
2022/03/20 00:13:32;;;;;;;239.53;86.90;;;;;;;-2.58;56.82;102117.09;1683768;84;21272;-70
2022/03/20 00:16:06;;;;;;;232.62;85.10;;;;;;;-2.60;57.01;102115.06;1680862;84;20935;-69
2022/03/20 00:18:36;;;;;;;240.97;86.30;;;;;;;-2.58;56.94;102116.56;1666750;84;21057;-69
2022/03/20 00:21:04;;;;;;;236.45;86.50;;;;;;;-2.54;56.69;102108.98;1674475;85;21583;-69
2022/03/20 00:23:35;;;;;;;244.72;86.65;;;;;;;-2.51;56.72;102112.71;1700479;83;20937;-70
2022/03/20 00:26:02;;;;;;;258.65;88.97;;;;;;;-2.45;56.27;102113.88;1707713;82;21016;-72
2022/03/20 00:28:31;;;;;;;238.92;90.77;;;;;;;-2.39;55.72;102109.66;1711949;83;20992;-69
2022/03/20 00:30:59;;;;;;;231.50;88.05;;;;;;;-2.34;55.09;102112.70;1711662;82;20996;-70
2022/03/20 00:33:36;;;;;;;236.00;85.75;;;;;;;-2.26;54.75;102110.48;1712898;82;21048;-71
2022/03/20 00:36:05;;;;;;;233.02;81.12;;;;;;;-2.21;54.65;102111.67;1709005;82;21062;-70
2022/03/20 00:38:31;;;;;;;219.60;82.50;;;;;;;-2.15;54.50;102113.36;1656399;85;21681;-68
2022/03/20 00:41:01;;;;;;;221.18;80.05;;;;;;;-2.12;54.09;102111.66;1667520;85;21025;-70
2022/03/20 00:43:36;;;;;;;218.70;76.33;;;;;;;-2.08;53.90;102111.64;1667912;85;21052;-72
2022/03/20 00:46:04;;;;;;;214.23;77.27;;;;;;;-2.03;53.67;102111.97;1655712;83;21034;-67
2022/03/20 00:48:32;;;;;;;218.00;77.55;;;;;;;-1.98;53.63;102108.24;1668579;84;21057;-68
2022/03/20 00:51:03;;;;;;;219.22;76.22;;;;;;;-1.92;53.60;102113.98;1655542;85;20998;-70
2022/03/20 00:53:32;;;;;;;212.23;72.50;;;;;;;-1.88;53.43;102108.08;1655421;85;21010;-71
2022/03/20 00:55:59;;;;;;;210.78;71.07;;;;;;;-1.84;53.03;102104.48;1664698;85;20950;-71
2022/03/20 00:58:27;;;;;;;199.27;69.17;;;;;;;-1.81;53.06;102097.91;1676311;85;21539;-69
2022/03/20 01:00:57;;;;;;;212.10;71.80;;;;;;;-1.77;53.13;102091.13;1667938;85;21030;-69
2022/03/20 01:03:26;;;;;;;212.30;71.80;;;;;;;-1.74;53.10;102099.73;1664022;85;21131;-70
2022/03/20 01:05:53;;;;;;;199.02;73.52;;;;;;;-1.73;53.11;102097.88;1656974;85;21472;-69
2022/03/20 01:08:21;;;;;;;199.53;69.72;;;;;;;-1.72;53.11;102092.80;1677360;85;21438;-70
2022/03/20 01:10:50;;;;;;;201.90;69.22;;;;;;;-1.73;53.22;102094.67;1676898;85;21010;-68
2022/03/20 01:13:18;;;;;;;202.68;70.45;;;;;;;-1.75;53.10;102094.00;1674262;85;21052;-67
2022/03/20 01:15:46;;;;;;;203.52;68.25;;;;;;;-1.73;53.13;102092.47;1653372;86;21897;-69
2022/03/20 01:18:14;;;;;;;202.18;70.50;;;;;;;-1.72;53.24;102097.70;1653648;86;21007;-69
2022/03/20 01:20:42;;;;;;;216.93;74.22;;;;;;;-1.71;53.36;102095.32;1650046;85;21134;-70
2022/03/20 01:23:09;;;;;;;200.20;66.57;;;;;;;-1.68;53.31;102096.00;1657152;85;21074;-70
2022/03/20 01:25:40;;;;;;;223.65;72.95;;;;;;;-1.68;53.21;102094.64;1668844;84;21457;-69
2022/03/20 01:28:07;;;;;;;207.60;67.00;;;;;;;-1.65;53.12;102097.84;1661973;84;21548;-68
2022/03/20 01:30:38;;;;;;;192.25;69.92;;;;;;;-1.69;53.19;102091.13;1662836;85;21010;-69
2022/03/20 01:33:05;;;;;;;187.25;63.20;;;;;;;-1.68;53.23;102091.94;1668424;85;21098;-68
2022/03/20 01:35:33;;;;;;;194.85;67.17;;;;;;;-1.66;53.36;102092.62;1669979;84;21088;-68
2022/03/20 01:38:07;;;;;;;196.72;66.35;;;;;;;-1.66;53.27;102089.91;1662667;85;21084;-68
2022/03/20 01:40:35;;;;;;;189.28;64.62;;;;;;;-1.72;53.24;102082.83;1661100;85;21865;-68
2022/03/20 01:43:02;;;;;;;184.32;64.30;;;;;;;-1.75;53.35;102085.89;1663011;85;21147;-70
2022/03/20 01:45:28;;;;;;;182.80;63.63;;;;;;;-1.76;53.56;102084.72;1664563;85;21089;-69
2022/03/20 01:47:56;;;;;;;179.93;63.02;;;;;;;-1.75;53.64;102088.59;1670028;85;21175;-68
2022/03/20 01:50:26;;;;;;;201.62;67.85;;;;;;;-1.75;53.86;102087.74;1650385;85;21114;-71
2022/03/20 01:52:54;;;;;;;195.95;68.55;;;;;;;-1.77;54.01;102089.27;1655346;85;22105;-69
2022/03/20 01:55:24;;;;;;;214.70;65.42;;;;;;;-1.78;54.00;102086.74;1672438;85;20959;-69
2022/03/20 01:57:51;;;;;;;210.08;68.90;;;;;;;-1.80;54.03;102088.27;1674227;85;20982;-69
2022/03/20 02:00:21;;;;;;;207.77;71.05;;;;;;;-1.78;54.14;102089.45;1661328;85;21089;-68
2022/03/20 02:02:49;;;;;;;245.12;73.97;;;;;;;-1.80;54.01;102090.98;1656935;84;20958;-69
2022/03/20 02:05:17;;;;;;;212.27;69.65;;;;;;;-1.85;54.02;102083.89;1657632;85;21096;-69
2022/03/20 02:07:45;;;;;;;228.02;74.27;;;;;;;-1.88;54.31;102090.50;1675996;85;21065;-69
2022/03/20 02:10:14;;;;;;;241.08;77.37;;;;;;;-1.89;54.64;102089.30;1714871;82;21567;-69
2022/03/20 02:12:43;;;;;;;266.57;86.20;;;;;;;-1.88;54.69;102088.30;1709396;82;21588;-68
2022/03/20 02:15:12;;;;;;;253.73;81.70;;;;;;;-1.98;54.92;102097.43;1711374;83;21343;-70
2022/03/20 02:17:41;;;;;;;248.87;80.07;;;;;;;-2.02;54.88;102093.41;1668506;85;21986;-72
2022/03/20 02:20:10;;;;;;;257.75;81.85;;;;;;;-2.06;54.89;102082.59;1675979;85;21171;-70
2022/03/20 02:22:42;;;;;;;242.25;79.50;;;;;;;-2.09;55.24;102085.14;1662613;85;21081;-70
2022/03/20 02:25:10;;;;;;;253.27;83.07;;;;;;;-2.09;55.47;102086.99;1676724;85;20986;-69
2022/03/20 02:27:39;;;;;;;284.62;86.72;;;;;;;-2.12;55.51;102086.84;1662049;84;21088;-68
2022/03/20 02:30:13;;;;;;;249.55;81.12;;;;;;;-2.12;55.63;102085.49;1657178;86;21219;-68
2022/03/20 02:32:48;;;;;;;232.67;78.25;;;;;;;-2.14;55.94;102083.96;1651880;85;21070;-69
2022/03/20 02:35:18;;;;;;;260.63;83.40;;;;;;;-2.17;56.28;102087.02;1677926;84;21148;-71
2022/03/20 02:37:47;;;;;;;256.10;84.00;;;;;;;-2.20;56.49;102080.93;1669930;84;21022;-72
2022/03/20 02:40:18;;;;;;;252.90;84.25;;;;;;;-2.22;56.71;102087.00;1676894;85;21533;-69
2022/03/20 02:42:48;;;;;;;242.57;84.70;;;;;;;-2.24;57.16;102095.81;1653428;85;21088;-68
2022/03/20 02:45:23;;;;;;;246.15;83.27;;;;;;;-2.26;57.40;102096.48;1666856;84;21022;-68
2022/03/20 02:47:51;;;;;;;245.27;80.95;;;;;;;-2.28;57.51;102098.50;1652258;85;21436;-70
2022/03/20 02:50:25;;;;;;;259.65;83.82;;;;;;;-2.32;57.51;102098.00;1662995;84;21054;-70
2022/03/20 02:52:58;;;;;;;259.85;84.95;;;;;;;-2.34;57.45;102084.34;1666614;85;21055;-69
2022/03/20 02:55:37;;;;;;;270.80;86.57;;;;;;;-2.35;57.24;102092.94;1654054;86;21044;-72
2022/03/20 02:58:10;;;;;;;270.07;86.05;;;;;;;-2.37;57.15;102087.39;1656633;85;21033;-69
2022/03/20 03:00:40;;;;;;;259.25;84.15;;;;;;;-2.39;57.12;102094.28;1655114;85;20986;-70
2022/03/20 03:03:20;;;;;;;252.78;84.60;;;;;;;-2.39;57.21;102094.81;1658113;85;20970;-70
2022/03/20 03:06:06;;;;;;;257.67;84.17;;;;;;;-2.41;57.51;102091.42;1666723;85;21006;-68
2022/03/20 03:11:18;;;;;;;244.90;82.70;;;;;;;-2.49;57.41;102085.01;1661496;85;21065;-70
2022/03/20 03:13:47;;;;;;;250.60;81.92;;;;;;;-2.48;57.60;102085.86;1671360;85;21018;-68
2022/03/20 03:16:19;;;;;;;236.03;81.20;;;;;;;-2.49;57.77;102081.48;1659783;85;21007;-71
2022/03/20 03:18:48;;;;;;;254.68;84.67;;;;;;;-2.52;58.09;102082.66;1662790;86;21120;-68
2022/03/20 03:21:17;;;;;;;253.42;84.32;;;;;;;-2.55;58.25;102077.59;1681302;83;21349;-71
2022/03/20 03:23:44;;;;;;;250.43;80.05;;;;;;;-2.57;58.60;102080.47;1680628;83;21440;-70
2022/03/20 03:26:11;;;;;;;250.62;79.97;;;;;;;-2.57;58.70;102072.86;1679379;84;20997;-71
2022/03/20 03:28:38;;;;;;;252.93;78.07;;;;;;;-2.57;58.66;102072.86;1674273;83;20978;-69
2022/03/20 03:31:10;;;;;;;261.05;82.67;;;;;;;-2.57;58.60;102067.47;1678828;83;20958;-68
2022/03/20 03:36:09;;;;;;;249.40;80.70;;;;;;;-2.61;58.78;102062.08;1641115;85;21065;-69
2022/03/20 03:38:36;;;;;;;258.35;79.05;;;;;;;-2.59;58.85;102060.88;1681353;83;21075;-70
2022/03/20 03:41:03;;;;;;;260.45;84.37;;;;;;;-2.57;58.96;102062.06;1677921;84;21018;-71
2022/03/20 03:43:32;;;;;;;248.40;81.90;;;;;;;-2.56;59.03;102062.42;1676590;83;20999;-69
2022/03/20 03:45:59;;;;;;;244.68;78.22;;;;;;;-2.56;59.09;102062.42;1674614;85;21999;-71
2022/03/20 03:48:30;;;;;;;246.07;79.62;;;;;;;-2.53;59.12;102056.67;1676675;83;20970;-69
2022/03/20 03:50:57;;;;;;;244.90;77.27;;;;;;;-2.50;59.06;102053.63;1683271;84;21436;-70
2022/03/20 03:53:26;;;;;;;239.65;76.62;;;;;;;-2.49;59.03;102056.66;1675552;85;21006;-69
2022/03/20 03:55:54;;;;;;;229.40;76.87;;;;;;;-2.50;59.08;102066.28;1699873;82;20997;-69
2022/03/20 03:58:21;;;;;;;261.05;80.28;;;;;;;-2.50;59.19;102064.43;1662678;85;21632;-70
2022/03/20 04:00:51;;;;;;;239.88;78.83;;;;;;;-2.50;59.32;102059.03;1672009;84;20962;-72
2022/03/20 04:03:18;;;;;;;235.60;76.25;;;;;;;-2.51;59.21;102061.41;1664600;85;21017;-71
2022/03/20 04:05:50;;;;;;;247.63;79.95;;;;;;;-2.54;59.26;102060.37;1668375;85;20961;-69
2022/03/20 04:08:17;;;;;;;247.42;79.82;;;;;;;-2.55;59.36;102053.79;1676127;84;21013;-70
2022/03/20 04:10:44;;;;;;;225.45;76.37;;;;;;;-2.53;59.57;102053.13;1672205;85;21086;-71
2022/03/20 04:13:12;;;;;;;245.00;76.37;;;;;;;-2.54;59.78;102045.52;1676351;83;21125;-70
2022/03/20 04:15:41;;;;;;;238.80;80.07;;;;;;;-2.53;59.71;102040.97;1666138;84;20941;-71
2022/03/20 04:18:09;;;;;;;221.47;78.12;;;;;;;-2.53;59.66;102038.27;1680526;83;21059;-71
2022/03/20 04:20:38;;;;;;;221.70;73.70;;;;;;;-2.55;59.63;102038.44;1676401;84;20989;-69
2022/03/20 04:23:50;;;;;;;235.38;74.87;;;;;;;-2.58;59.68;102035.56;1674479;85;21260;-71
2022/03/20 04:25:36;;;;;;;231.82;79.12;;;;;;;-2.55;59.84;102040.29;1652678;84;21485;-69
2022/03/20 04:28:05;;;;;;;240.92;82.15;;;;;;;-2.52;59.95;102042.14;1679994;83;21042;-69
2022/03/20 04:30:33;;;;;;;242.60;79.75;;;;;;;-2.48;59.83;102042.16;1679214;85;21632;-68
2022/03/20 04:33:04;;;;;;;242.60;82.95;;;;;;;-2.47;59.80;102042.48;1669272;85;20950;-69
2022/03/20 04:35:31;;;;;;;251.20;83.90;;;;;;;-2.45;59.79;102043.66;1672515;84;21896;-68
2022/03/20 04:38:01;;;;;;;249.98;84.55;;;;;;;-2.41;59.77;102045.02;1672472;84;20898;-71
2022/03/20 04:40:31;;;;;;;249.42;86.47;;;;;;;-2.37;59.67;102053.63;1678380;83;21000;-71
2022/03/20 04:42:59;;;;;;;273.13;91.82;;;;;;;-2.34;59.58;102050.58;1707959;81;21166;-72
2022/03/20 04:45:27;;;;;;;273.70;94.30;;;;;;;-2.32;59.49;102058.00;1708911;81;21080;-71
2022/03/20 04:58:57;;;;;;;276.80;95.53;;;;;;;-2.38;59.46;102055.97;1709720;82;21085;-71
2022/03/20 05:01:27;;;;;;;281.30;94.10;;;;;;;-2.34;59.59;102058.68;1710105;82;21086;-70
2022/03/20 05:03:54;;;;;;;328.23;100.78;;;;;;;-2.30;59.43;102059.19;1665591;84;21066;-71
2022/03/20 05:06:23;;;;;;;319.95;104.25;;;;;;;-2.31;59.42;102056.98;1687598;82;21033;-69
2022/03/20 05:08:51;;;;;;;290.82;100.50;;;;;;;-2.28;59.48;102068.79;1674280;83;21905;-68
2022/03/20 05:14:07;;;;;;;407.17;127.47;;;;;;;-2.18;59.06;102060.48;1709022;82;22068;-69
2022/03/20 05:16:34;;;;;;;423.45;130.63;;;;;;;-2.13;58.73;102062.17;1709980;82;20995;-70
2022/03/20 05:19:02;;;;;;;380.10;122.75;;;;;;;-2.06;58.27;102058.27;1707446;81;20961;-71
2022/03/20 05:21:37;;;;;;;397.88;120.37;;;;;;;-2.01;57.57;102058.59;1660693;84;21452;-69
2022/03/20 05:24:07;;;;;;;337.57;104.95;;;;;;;-1.93;57.48;102067.20;1670413;83;20946;-69
2022/03/20 05:26:36;;;;;;;344.50;114.92;;;;;;;-1.88;57.14;102066.17;1670918;83;21065;-69
2022/03/20 05:29:04;;;;;;;308.25;100.07;;;;;;;-1.82;56.56;102070.02;1672933;83;21121;-72
2022/03/20 05:31:32;;;;;;;317.80;100.10;;;;;;;-1.77;56.38;102069.49;1673210;83;21022;-69
2022/03/20 05:34:00;;;;;;;314.77;95.28;;;;;;;-1.72;56.39;102073.37;1673746;82;21073;-72
2022/03/20 05:36:29;;;;;;;299.95;92.82;;;;;;;-1.66;56.17;102072.33;1662880;84;20973;-68
2022/03/20 05:38:56;;;;;;;287.30;89.37;;;;;;;-1.62;56.21;102076.39;1671464;84;21648;-70
2022/03/20 05:44:17;;;;;;;230.77;74.20;;;;;;;-1.50;56.27;102080.90;1662033;83;20997;-72
2022/03/20 05:46:47;;;;;;;247.20;78.72;;;;;;;-1.42;55.71;102083.56;1678791;83;21128;-69
2022/03/20 05:49:16;;;;;;;258.55;83.20;;;;;;;-1.37;55.81;102083.02;1709281;82;21057;-70
2022/03/20 05:51:45;;;;;;;248.97;81.02;;;;;;;-1.34;55.56;102079.96;1705663;81;22135;-70
2022/03/20 05:54:17;;;;;;;243.78;79.67;;;;;;;-1.27;55.69;102081.45;1674334;84;21468;-69
2022/03/20 05:59:35;;;;;;;215.87;69.42;;;;;;;-1.11;55.47;102089.47;1673951;83;21081;-69
2022/03/20 06:02:09;;;;;;;236.20;77.45;;;;;;;-1.01;55.11;102098.70;1671614;84;21186;-68
2022/03/20 06:04:37;;;;;;;245.48;79.60;;;;;;;-0.93;54.68;102099.67;1710366;82;21288;-69
2022/03/20 06:07:08;;;;;;;229.53;77.45;;;;;;;-0.87;54.72;102101.16;1710301;82;21031;-70
2022/03/20 06:09:36;;;;;;;238.75;78.62;;;;;;;-0.79;54.44;102104.84;1709894;82;21075;-71
2022/03/20 06:12:07;;;;;;;216.10;72.75;;;;;;;-0.71;54.19;102107.98;1658110;85;21442;-70
2022/03/20 06:14:41;;;;;;;257.05;76.22;;;;;;;-0.65;53.85;102110.81;1658065;83;21191;-69
2022/03/20 06:17:10;;;;;;;204.55;73.15;;;;;;;-0.57;53.71;102109.92;1660475;84;21075;-68
2022/03/20 06:19:36;;;;;;;224.90;73.07;;;;;;;-0.50;53.56;102109.53;1670722;84;21006;-69
2022/03/20 06:22:05;;;;;;;187.75;65.70;;;;;;;-0.41;53.44;102106.75;1668935;84;21026;-69
2022/03/20 06:24:33;;;;;;;230.75;75.60;;;;;;;-0.34;53.08;102113.10;1675481;84;21053;-69
2022/03/20 06:27:03;;;;;;;212.15;72.20;;;;;;;-0.26;53.08;102103.53;1670716;85;20930;-71
2022/03/20 06:29:30;;;;;;;192.98;66.85;;;;;;;-0.15;52.98;102102.77;1670896;85;21951;-71
2022/03/20 06:32:00;;;;;;;224.12;73.35;;;;;;;-0.04;52.54;102102.84;1676173;84;21163;-72
2022/03/20 06:34:29;;;;;;;215.95;71.02;;;;;;;0.04;52.44;102098.68;1679351;82;21016;-73
2022/03/20 06:37:00;;;;;;;173.15;61.80;;;;;;;0.14;52.22;102105.18;1670456;83;20968;-71
2022/03/20 06:39:27;;;;;;;221.03;69.92;;;;;;;0.26;51.96;102093.34;1701336;82;20953;-70
2022/03/20 06:42:26;;;;;;;202.45;69.95;;;;;;;0.36;51.94;102096.62;1706415;81;21842;-68
2022/03/20 06:44:53;;;;;;;179.82;68.65;;;;;;;0.48;51.68;102092.06;1675780;84;20951;-71
2022/03/20 06:47:23;;;;;;;184.07;62.70;;;;;;;0.66;51.55;102101.69;1671161;84;21029;-72
2022/03/20 06:49:50;;;;;;;175.38;55.90;;;;;;;0.82;51.13;102102.00;1691469;82;21065;-69
2022/03/20 06:52:17;;;;;;;157.27;57.05;;;;;;;0.97;50.06;102101.95;1662274;85;21076;-72
2022/03/20 06:54:44;;;;;;;155.78;56.68;;;;;;;1.09;49.48;102100.94;1668741;85;21208;-72
2022/03/20 06:57:14;;;;;;;156.90;55.83;;;;;;;1.21;49.67;102102.08;1664182;85;20996;-70
2022/03/20 06:59:41;;;;;;;143.22;50.12;;;;;;;1.37;49.69;102103.37;1653992;85;21070;-72
2022/03/20 07:02:18;;;;;;;142.57;52.95;;;;;;;1.53;49.53;102103.63;1672567;85;20953;-71
2022/03/20 07:04:51;;;;;;;128.20;47.48;;;;;;;1.64;49.17;102103.09;1670681;84;21140;-72
2022/03/20 07:07:18;;;;;;;109.85;44.45;;;;;;;1.77;49.00;102100.17;1672189;85;22210;-69
2022/03/20 07:09:45;;;;;;;113.55;41.92;;;;;;;1.91;48.51;102100.58;1650619;86;21030;-71
2022/03/20 07:12:13;;;;;;;91.35;38.90;;;;;;;2.02;47.90;102101.06;1656306;85;20982;-69
2022/03/20 07:15:00;;;;;;;90.20;36.10;;;;;;;2.14;47.55;102095.91;1658807;85;20984;-69
2022/03/20 07:17:29;;;;;;;89.50;34.85;;;;;;;2.25;47.41;102098.60;1666122;85;20998;-69
2022/03/20 07:19:56;;;;;;;92.40;34.83;;;;;;;2.36;47.15;102093.09;1668055;85;21703;-70
2022/03/20 07:22:23;;;;;;;67.42;29.82;;;;;;;2.48;46.94;102086.05;1668249;85;21502;-72
2022/03/20 07:24:53;;;;;;;66.25;26.80;;;;;;;2.62;46.36;102086.95;1661903;85;21050;-70
2022/03/20 07:30:07;;;;;;;41.45;20.95;;;;;;;2.85;45.69;102085.75;1656208;85;21065;-69
2022/03/20 07:32:36;;;;;;;49.30;22.65;;;;;;;2.99;45.67;102087.14;1658678;86;21535;-68
2022/03/20 07:35:05;;;;;;;53.40;22.77;;;;;;;3.11;45.00;102078.70;1663551;84;21040;-72
2022/03/20 07:37:34;;;;;;;55.92;24.67;;;;;;;3.23;44.51;102086.25;1662560;85;21080;-71
2022/03/20 07:40:01;;;;;;;48.75;20.40;;;;;;;3.37;44.48;102089.32;1656125;86;21058;-72
2022/03/20 07:42:30;;;;;;;48.25;21.05;;;;;;;3.52;44.43;102085.03;1670894;85;21427;-70
2022/03/20 07:44:57;;;;;;;44.08;20.27;;;;;;;3.64;44.25;102087.97;1670080;85;21699;-71
2022/03/20 07:47:28;;;;;;;56.25;20.70;;;;;;;3.74;43.29;102090.27;1664542;84;21037;-72
2022/03/20 07:49:56;;;;;;;58.10;25.37;;;;;;;3.83;43.04;102089.52;1657152;85;20927;-72
2022/03/20 07:52:23;;;;;;;65.15;25.27;;;;;;;3.98;42.82;102087.08;1660827;85;21101;-73
2022/03/20 07:54:51;;;;;;;46.13;18.02;;;;;;;4.08;42.92;102091.58;1668253;84;21116;-71
2022/03/20 07:57:18;;;;;;;29.27;13.95;;;;;;;4.21;42.55;102081.17;1666047;84;21836;-72
2022/03/20 07:59:47;;;;;;;39.88;14.20;;;;;;;4.37;42.37;102093.50;1673150;85;20998;-68
2022/03/20 08:02:14;;;;;;;25.68;11.93;;;;;;;4.52;42.61;102082.00;1696068;82;20997;-71
2022/03/20 08:04:42;;;;;;;25.88;13.70;;;;;;;4.63;41.68;102087.63;1709902;82;21489;-71
2022/03/20 08:07:10;;;;;;;23.90;11.93;;;;;;;4.70;41.20;102082.66;1660097;85;21407;-72
2022/03/20 08:09:39;;;;;;;24.63;11.73;;;;;;;4.74;41.69;102083.36;1673855;83;21407;-72
2022/03/20 08:12:11;;;;;;;21.27;11.22;;;;;;;4.82;41.17;102081.44;1668600;84;20982;-73
2022/03/20 08:14:39;;;;;;;19.35;10.08;;;;;;;4.93;41.40;102077.19;1670642;84;21084;-71
2022/03/20 08:17:08;;;;;;;23.70;9.95;;;;;;;4.97;40.62;102071.58;1646045;83;21099;-71
2022/03/20 08:19:36;;;;;;;14.93;8.45;;;;;;;5.05;41.05;102063.66;1692436;82;20977;-72
2022/03/20 08:22:05;;;;;;;17.23;8.58;;;;;;;5.20;41.39;102067.45;1710348;82;21229;-72
2022/03/20 08:24:32;;;;;;;16.17;8.48;;;;;;;5.35;41.22;102072.59;1710326;82;20954;-71
2022/03/20 08:27:02;;;;;;;20.27;9.78;;;;;;;5.48;41.15;102065.64;1660985;85;21440;-71
2022/03/20 08:29:30;;;;;;;18.30;8.65;;;;;;;5.61;41.02;102065.23;1695863;83;20965;-72
2022/03/20 08:32:06;;;;;;;15.30;8.10;;;;;;;5.70;40.72;102065.23;1670420;83;21230;-73
2022/03/20 08:34:40;;;;;;;15.30;8.18;;;;;;;5.79;40.79;102068.53;1694529;82;21159;-70
2022/03/20 08:37:08;;;;;;;14.58;8.10;;;;;;;5.93;40.43;102073.34;1698915;84;21078;-72
2022/03/20 08:39:35;;;;;;;14.78;8.18;;;;;;;6.02;39.68;102074.42;1668743;85;21065;-69
2022/03/20 08:42:05;;;;;;;16.82;7.95;;;;;;;6.10;40.13;102070.05;1661458;85;20991;-71
2022/03/20 08:44:31;;;;;;;15.45;7.87;;;;;;;6.20;40.02;102072.25;1666431;85;21479;-70
2022/03/20 08:47:04;;;;;;;15.20;7.75;;;;;;;6.30;39.56;102064.34;1699557;82;21043;-72
2022/03/20 08:49:35;;;;;;;15.10;8.43;;;;;;;6.40;39.63;102065.69;1658547;85;21242;-72
2022/03/20 08:52:05;;;;;;;12.65;7.28;;;;;;;6.53;39.75;102061.44;1664519;85;21141;-69
2022/03/20 08:54:38;;;;;;;18.05;8.38;;;;;;;6.68;39.60;102058.81;1667192;85;21081;-70
2022/03/20 08:57:07;;;;;;;12.68;7.15;;;;;;;6.82;39.32;102053.44;1667838;85;20944;-70
2022/03/20 08:59:34;;;;;;;13.32;7.67;;;;;;;6.99;39.26;102058.81;1665826;84;21226;-68
2022/03/20 09:02:02;;;;;;;16.55;7.72;;;;;;;7.15;38.64;102050.44;1676840;85;20941;-69
2022/03/20 09:04:29;;;;;;;18.10;7.17;;;;;;;7.28;38.07;102058.45;1670912;85;21046;-71
2022/03/20 09:06:59;;;;;;;17.05;8.50;;;;;;;7.35;37.27;102047.92;1671033;84;21005;-69
2022/03/20 09:09:27;;;;;;;10.88;7.50;;;;;;;7.42;37.68;102056.89;1663883;85;20993;-71
2022/03/20 09:11:54;;;;;;;14.68;8.25;;;;;;;7.50;37.12;102055.70;1662029;85;21584;-72
2022/03/20 09:14:21;;;;;;;15.65;8.15;;;;;;;7.51;37.12;102060.94;1665986;85;20931;-72
2022/03/20 09:19:42;;;;;;;16.75;7.37;;;;;;;7.66;37.37;102053.61;1670688;85;21155;-72
2022/03/20 09:22:12;;;;;;;19.95;8.78;;;;;;;7.77;37.04;102049.73;1663484;84;21124;-71
2022/03/20 09:24:40;;;;;;;18.65;8.73;;;;;;;7.84;36.88;102053.73;1667407;84;21144;-70
2022/03/20 09:27:13;;;;;;;14.10;8.58;;;;;;;7.90;36.86;102053.60;1672268;84;21431;-72
2022/03/20 09:29:40;;;;;;;15.93;8.08;;;;;;;7.97;36.81;102057.59;1660707;85;20962;-67
2022/03/20 09:32:09;;;;;;;17.10;8.40;;;;;;;8.03;36.61;102058.56;1670842;83;20962;-71
2022/03/20 09:34:36;;;;;;;15.25;8.33;;;;;;;8.01;36.29;102051.94;1675578;83;21117;-72
2022/03/20 09:37:03;;;;;;;17.85;8.53;;;;;;;8.00;36.33;102058.48;1671299;84;21574;-71
2022/03/20 09:39:30;;;;;;;16.87;8.35;;;;;;;8.04;36.53;102052.82;1690280;83;20977;-70
2022/03/20 09:42:02;;;;;;;15.88;8.60;;;;;;;8.15;36.61;102050.30;1680447;83;20929;-70
2022/03/20 09:44:33;;;;;;;15.98;8.43;;;;;;;8.29;36.70;102046.73;1694562;83;21054;-72
2022/03/20 09:47:03;;;;;;;15.88;8.63;;;;;;;8.36;35.67;102045.25;1704780;82;21107;-70
2022/03/20 09:49:32;;;;;;;13.62;8.38;;;;;;;8.32;35.76;102047.64;1651018;84;21299;-69
2022/03/20 09:52:06;;;;;;;18.70;8.43;;;;;;;8.42;35.88;102044.79;1642252;84;20994;-68
2022/03/20 09:54:34;;;;;;;15.83;7.85;;;;;;;8.51;35.58;102052.40;1653602;84;21080;-72
2022/03/20 09:57:06;;;;;;;10.75;6.80;;;;;;;8.59;35.46;102049.01;1675557;83;21003;-70
2022/03/20 09:59:34;;;;;;;13.85;8.50;;;;;;;8.70;35.52;102039.06;1669926;83;21058;-71
2022/03/20 10:02:09;;;;;;;14.87;7.85;;;;;;;8.80;35.25;102032.91;1664038;84;21852;-71
2022/03/20 10:05:07;;;;;;;13.53;7.95;;;;;;;8.90;35.19;102034.48;1678706;84;21468;-69
2022/03/20 10:07:41;;;;;;;11.20;6.70;;;;;;;8.99;34.98;102033.55;1672259;84;21601;-73
2022/03/20 10:10:25;;;;;;;13.90;6.92;;;;;;;9.08;35.06;102036.70;1655754;85;21003;-68
2022/03/20 10:12:57;;;;;;;14.10;6.85;;;;;;;9.19;34.75;102034.97;1664346;83;21064;-67
2022/03/20 10:15:34;;;;;;;13.25;7.12;;;;;;;9.20;33.93;102022.87;1702779;82;21928;-71
2022/03/20 10:18:21;;;;;;;12.25;6.72;;;;;;;8.99;33.50;102034.35;1709971;82;21040;-70
2022/03/20 10:20:53;;;;;;;14.43;7.62;;;;;;;8.88;34.07;102026.48;1663641;85;21006;-71
2022/03/20 10:23:41;;;;;;;9.65;6.33;;;;;;;8.87;34.04;102012.42;1669728;85;21109;-71
2022/03/20 10:26:19;;;;;;;12.68;7.00;;;;;;;8.96;34.37;102020.27;1658214;85;21164;-71
2022/03/20 10:28:55;;;;;;;23.00;6.78;;;;;;;9.10;34.41;102018.88;1677150;85;21826;-70
2022/03/20 10:31:22;;;;;;;14.33;6.87;;;;;;;9.27;34.35;102014.45;1710140;82;21194;-68
2022/03/20 10:34:04;;;;;;;14.03;7.05;;;;;;;9.38;33.65;102023.99;1708790;82;21595;-68
2022/03/20 10:36:35;;;;;;;14.43;7.70;;;;;;;9.44;33.73;102015.82;1664779;85;21030;-69
2022/03/20 10:39:19;;;;;;;12.37;6.60;;;;;;;9.55;33.62;102018.20;1711441;82;21040;-72
2022/03/20 10:41:56;;;;;;;9.38;6.30;;;;;;;9.55;32.85;102014.91;1707475;82;21145;-68
2022/03/20 10:44:37;;;;;;;8.70;5.53;;;;;;;9.30;32.02;102007.91;1707765;82;21099;-72
2022/03/20 10:47:18;;;;;;;9.75;6.00;;;;;;;9.18;32.88;102009.37;1709560;82;20997;-68
2022/03/20 10:50:09;;;;;;;13.35;5.67;;;;;;;9.31;33.69;102010.13;1665094;85;20982;-70
2022/03/20 10:52:38;;;;;;;16.35;6.10;;;;;;;9.36;32.22;101999.20;1710846;83;20991;-72
2022/03/20 10:55:10;;;;;;;11.10;6.30;;;;;;;9.17;31.86;102006.33;1710201;82;21751;-72
2022/03/20 10:57:39;;;;;;;18.32;6.22;;;;;;;9.11;32.83;101989.47;1674974;83;20934;-71
2022/03/20 11:00:14;;;;;;;11.70;6.80;;;;;;;9.22;31.69;102005.58;1680785;83;21068;-72
2022/03/20 11:02:42;;;;;;;11.38;5.42;;;;;;;9.07;31.97;101993.78;1713740;82;21070;-70
2022/03/20 11:05:09;;;;;;;14.35;6.60;;;;;;;9.11;32.56;101990.84;1708342;82;20996;-68
2022/03/20 11:07:36;;;;;;;16.10;5.67;;;;;;;9.25;32.31;101992.16;1655976;85;21842;-71
2022/03/20 11:10:11;;;;;;;11.55;5.95;;;;;;;9.29;31.83;101991.66;1664954;85;21403;-72
2022/03/20 11:12:53;;;;;;;10.03;5.35;;;;;;;9.32;32.31;101985.64;1665808;85;21219;-71
2022/03/20 11:15:20;;;;;;;15.18;6.40;;;;;;;9.51;31.75;101984.84;1657930;85;21538;-71
2022/03/20 11:17:46;;;;;;;12.35;6.22;;;;;;;9.58;31.89;101989.63;1654060;86;21503;-70
2022/03/20 11:20:19;;;;;;;9.73;5.72;;;;;;;9.62;31.37;101985.83;1663233;85;21131;-72
2022/03/20 11:22:52;;;;;;;9.93;6.33;;;;;;;9.55;30.72;101981.05;1675494;85;21045;-71
2022/03/20 11:25:25;;;;;;;11.20;5.97;;;;;;;9.36;31.56;101979.95;1687366;84;21522;-69
2022/03/20 11:27:59;;;;;;;10.45;5.45;;;;;;;9.38;31.72;101967.58;1675206;84;21006;-72
2022/03/20 11:30:30;;;;;;;8.65;5.15;;;;;;;9.50;31.06;101963.92;1674857;85;21490;-72
2022/03/20 11:33:01;;;;;;;8.63;5.85;;;;;;;9.48;31.01;101965.52;1676460;85;20963;-69
2022/03/20 11:35:32;;;;;;;9.65;5.75;;;;;;;9.47;31.03;101955.61;1677067;83;20959;-71
2022/03/20 11:38:21;;;;;;;10.00;5.78;;;;;;;9.65;31.72;101960.55;1674700;85;21517;-71
2022/03/20 11:41:20;;;;;;;10.00;5.67;;;;;;;9.82;30.76;101961.03;1669458;85;21084;-72
2022/03/20 11:44:15;;;;;;;10.28;5.58;;;;;;;9.77;30.47;101963.72;1673886;85;21549;-73
2022/03/20 11:46:45;;;;;;;11.20;6.05;;;;;;;9.72;30.86;101954.30;1705220;82;21078;-72
2022/03/20 11:49:22;;;;;;;11.95;5.62;;;;;;;9.88;31.31;101951.74;1706242;82;21051;-71
2022/03/20 11:52:06;;;;;;;9.73;5.70;;;;;;;10.04;30.28;101956.91;1713065;82;21001;-69
2022/03/20 11:54:48;;;;;;;11.33;6.15;;;;;;;10.07;30.79;101947.28;1712502;82;21072;-68